Time;durP1;ratioP1;P1;durP2;ratioP2;P2;SDS_P1;SDS_P2;PMS_P1;PMS_P2;Temp;Humidity;BMP_temperature;BMP_pressure;BME280_temperature;BME280_humidity;BME280_pressure;Samples;Min_cycle;Max_cycle;Signal;HPM_P1;HPM_P2
2023/02/07 00:00:26;;;;;;;;;15.00;13.50;;;;;7.38;57.23;103016.06;2073370;28;46146;-61
2023/02/07 00:01:27;;;;;;;;;15.50;13.00;;;;;7.37;57.19;103001.06;2063522;27;46569;-61
2023/02/07 00:02:28;;;;;;;;;11.00;10.00;;;;;7.38;57.07;103015.19;2069864;27;46866;-62
2023/02/07 00:03:28;;;;;;;;;13.00;12.00;;;;;7.37;56.90;103014.28;2069321;27;46367;-60
2023/02/07 00:04:28;;;;;;;;;13.00;11.25;;;;;7.37;57.13;103005.47;2070250;27;46435;-61
2023/02/07 00:05:29;;;;;;;;;14.50;13.50;;;;;7.37;57.01;103010.75;2068346;28;46147;-60
2023/02/07 00:06:32;;;;;;;;;16.25;15.25;;;;;7.36;56.88;103012.47;2067241;28;46534;-62
2023/02/07 00:07:32;;;;;;;;;15.60;14.60;;;;;7.35;57.28;103009.78;2070964;28;45605;-61
2023/02/07 00:08:32;;;;;;;;;14.50;13.50;;;;;7.33;56.88;103009.75;2067793;28;46689;-61
2023/02/07 00:09:36;;;;;;;;;17.25;14.75;;;;;7.32;57.16;103001.78;2063656;28;46335;-60
2023/02/07 00:10:36;;;;;;;;;15.20;12.80;;;;;7.31;57.09;103000.88;2070182;28;45873;-62
2023/02/07 00:11:39;;;;;;;;;12.75;11.50;;;;;7.30;57.19;103003.47;2075442;28;46511;-62
2023/02/07 00:12:39;;;;;;;;;11.00;10.80;;;;;7.28;57.07;102990.25;2064075;28;46447;-64
2023/02/07 00:13:40;;;;;;;;;15.25;10.75;;;;;7.26;57.17;102997.22;2070796;27;47082;-65
2023/02/07 00:14:43;;;;;;;;;10.00;9.75;;;;;7.26;56.98;103002.50;2071023;28;46451;-58
2023/02/07 00:15:43;;;;;;;;;12.00;11.20;;;;;7.25;57.09;102995.44;2069734;28;46846;-62
2023/02/07 00:16:44;;;;;;;;;15.50;14.50;;;;;7.26;56.92;102997.22;2063353;28;46600;-61
2023/02/07 00:17:44;;;;;;;;;12.25;10.75;;;;;7.25;56.93;102997.19;2064133;28;46266;-60
2023/02/07 00:18:46;;;;;;;;;14.25;13.25;;;;;7.23;56.94;102991.84;2070974;27;46594;-61
2023/02/07 00:19:46;;;;;;;;;12.40;11.00;;;;;7.22;57.22;102986.50;2069111;27;46385;-61
2023/02/07 00:21:00;;;;;;;;;13.00;11.75;;;;;7.21;57.17;102990.91;2069418;28;46342;-61
2023/02/07 00:22:01;;;;;;;;;13.20;11.20;;;;;7.21;57.33;102996.19;2070630;28;46790;-60
2023/02/07 00:23:01;;;;;;;;;11.80;11.80;;;;;7.21;56.96;102990.00;2063154;28;46659;-61
2023/02/07 00:24:01;;;;;;;;;16.50;10.00;;;;;7.19;56.93;102991.72;2061943;28;46838;-61
2023/02/07 00:25:02;;;;;;;;;13.75;12.75;;;;;7.18;57.06;102988.19;2066823;27;46658;-60
2023/02/07 00:26:04;;;;;;;;;14.00;14.00;;;;;7.18;57.18;102987.28;2070241;28;47209;-60
2023/02/07 00:27:04;;;;;;;;;15.40;12.80;;;;;7.16;57.08;102984.59;2070181;28;46738;-61
2023/02/07 00:28:05;;;;;;;;;16.50;12.50;;;;;7.17;57.25;102980.22;2070663;28;46544;-61
2023/02/07 00:29:05;;;;;;;;;11.00;9.75;;;;;7.17;57.09;102981.13;2067454;28;45851;-60
2023/02/07 00:30:06;;;;;;;;;13.25;11.00;;;;;7.17;57.00;102977.59;2070782;27;46178;-61
2023/02/07 00:31:11;;;;;;;;;12.75;12.75;;;;;7.17;57.29;102972.31;2102541;28;46958;-61
2023/02/07 00:32:11;;;;;;;;;11.60;10.40;;;;;7.17;57.28;102967.91;2096289;28;46346;-61
2023/02/07 00:33:12;;;;;;;;;14.25;12.25;;;;;7.18;57.34;102974.09;2062791;28;46685;-61
2023/02/07 00:34:13;;;;;;;;;12.25;12.25;;;;;7.19;57.16;102978.50;2067608;28;46358;-61
2023/02/07 00:35:14;;;;;;;;;11.20;11.20;;;;;7.18;57.15;102968.81;2072258;27;46421;-59
2023/02/07 00:36:18;;;;;;;;;14.50;12.25;;;;;7.17;57.18;102975.84;2076436;28;46551;-60
2023/02/07 00:37:18;;;;;;;;;9.80;9.80;;;;;7.17;57.25;102972.31;2087543;27;46378;-60
2023/02/07 00:38:18;;;;;;;;;10.00;10.00;;;;;7.17;57.29;102970.56;2079705;27;46008;-60
2023/02/07 00:39:19;;;;;;;;;9.25;9.25;;;;;7.17;57.18;102969.66;2088982;27;46576;-61
2023/02/07 00:40:19;;;;;;;;;12.50;11.00;;;;;7.16;57.37;102973.16;2085675;27;46168;-62
2023/02/07 00:41:20;;;;;;;;;14.75;13.75;;;;;7.16;57.27;102970.50;2092632;27;45615;-62
2023/02/07 00:42:20;;;;;;;;;15.75;15.00;;;;;7.14;57.02;102978.41;2086016;27;46532;-63
2023/02/07 00:43:21;;;;;;;;;16.00;12.50;;;;;7.14;57.18;102973.13;2074769;27;46737;-60
2023/02/07 00:44:21;;;;;;;;;13.50;13.00;;;;;7.14;57.18;102977.50;2098605;27;45246;-63
2023/02/07 00:45:22;;;;;;;;;15.75;15.25;;;;;7.12;57.18;102979.22;2078792;27;46512;-61
2023/02/07 00:46:23;;;;;;;;;9.00;8.25;;;;;7.12;57.31;102984.50;2075579;27;46336;-61
2023/02/07 00:47:23;;;;;;;;;16.80;15.60;;;;;7.10;57.08;102984.41;2084352;27;46065;-61
2023/02/07 00:48:25;;;;;;;;;16.00;14.50;;;;;7.07;57.04;102974.66;2064348;28;46435;-61
2023/02/07 00:49:25;;;;;;;;;10.00;10.00;;;;;7.09;57.15;102975.59;2058076;28;45665;-61
2023/02/07 00:50:26;;;;;;;;;15.00;11.50;;;;;7.08;57.32;102971.19;2053861;28;46968;-60
2023/02/07 00:51:26;;;;;;;;;11.75;10.50;;;;;7.08;57.29;102978.19;2071093;27;45778;-60
2023/02/07 00:52:27;;;;;;;;;10.75;10.50;;;;;7.08;57.18;102973.81;2074478;27;46663;-61
2023/02/07 00:53:28;;;;;;;;;13.50;11.00;;;;;7.08;57.17;102965.00;2072458;27;46467;-60
2023/02/07 00:54:28;;;;;;;;;12.80;12.60;;;;;7.06;57.11;102966.72;2079946;27;46464;-59
2023/02/07 00:55:29;;;;;;;;;14.75;14.25;;;;;7.05;57.41;102972.84;2080522;27;46183;-62
2023/02/07 00:56:30;;;;;;;;;11.25;11.25;;;;;7.05;57.02;102975.47;2072829;28;45397;-61
2023/02/07 00:57:31;;;;;;;;;15.00;13.40;;;;;7.04;56.85;102971.94;2073479;27;46721;-60
2023/02/07 00:58:31;;;;;;;;;13.75;12.50;;;;;7.03;57.00;102977.19;2067474;27;45788;-60
2023/02/07 00:59:31;;;;;;;;;13.00;10.25;;;;;7.02;57.09;102973.66;2076206;27;46686;-60
2023/02/07 01:00:32;;;;;;;;;12.00;10.75;;;;;7.02;57.16;102976.28;2068194;27;46298;-60
2023/02/07 01:01:32;;;;;;;;;14.25;10.50;;;;;7.01;56.95;102979.78;2075212;27;46813;-61
2023/02/07 01:02:32;;;;;;;;;12.50;11.50;;;;;7.00;57.00;102980.63;2078123;27;46474;-59
2023/02/07 01:03:33;;;;;;;;;14.00;10.50;;;;;7.00;57.18;102970.09;2072857;27;46262;-61
2023/02/07 01:04:33;;;;;;;;;12.75;12.75;;;;;7.00;57.53;102978.00;2078982;27;46198;-61
2023/02/07 01:05:33;;;;;;;;;9.50;9.25;;;;;6.98;57.28;102971.75;2079010;27;46450;-60
2023/02/07 01:06:35;;;;;;;;;9.50;9.50;;;;;6.99;57.09;102970.03;2068940;28;47174;-60
2023/02/07 01:07:36;;;;;;;;;10.60;10.60;;;;;7.00;57.36;102974.47;2069157;28;46900;-60
2023/02/07 01:08:37;;;;;;;;;13.25;10.75;;;;;6.98;57.33;102969.13;2078437;27;46269;-61
2023/02/07 01:09:38;;;;;;;;;11.00;10.20;;;;;6.99;57.26;102977.97;2078825;27;46215;-60
2023/02/07 01:10:40;;;;;;;;;14.00;11.00;;;;;6.97;57.19;102972.59;2069411;27;46376;-60
2023/02/07 01:11:40;;;;;;;;;14.40;13.20;;;;;6.96;57.12;102972.56;2064938;27;46355;-60
2023/02/07 01:12:41;;;;;;;;;13.50;13.00;;;;;6.96;57.04;102976.09;2072896;28;46096;-62
2023/02/07 01:13:43;;;;;;;;;11.50;9.75;;;;;6.96;57.21;102976.09;2073427;27;45518;-60
2023/02/07 01:14:43;;;;;;;;;13.60;11.60;;;;;6.97;57.36;102980.53;2069474;27;46329;-62
2023/02/07 01:15:46;;;;;;;;;14.25;11.50;;;;;6.95;57.29;102974.31;2073662;28;46847;-61
2023/02/07 01:16:47;;;;;;;;;16.80;11.60;;;;;6.96;57.17;102978.75;2090382;27;46385;-61
2023/02/07 01:17:47;;;;;;;;;13.00;11.25;;;;;6.96;57.44;102980.47;2081918;27;45583;-62
2023/02/07 01:18:48;;;;;;;;;10.00;10.00;;;;;6.95;57.25;102976.06;2090611;27;46759;-60
2023/02/07 01:19:48;;;;;;;;;15.00;14.00;;;;;6.95;57.49;102974.31;2078947;27;46448;-60
2023/02/07 01:20:48;;;;;;;;;16.00;15.00;;;;;6.94;57.17;102972.53;2081618;27;46051;-60
2023/02/07 01:21:49;;;;;;;;;14.50;12.50;;;;;6.94;57.18;102972.53;2096875;27;46050;-60
2023/02/07 01:22:49;;;;;;;;;12.00;10.50;;;;;6.92;57.10;102966.31;2082189;27;46836;-60
2023/02/07 01:23:50;;;;;;;;;11.00;10.50;;;;;6.92;57.26;102965.41;2072123;27;46591;-60
2023/02/07 01:24:54;;;;;;;;;14.00;14.00;;;;;6.92;57.44;102965.41;2067832;28;46302;-61
2023/02/07 01:25:54;;;;;;;;;8.40;7.80;;;;;6.90;57.10;102965.38;2063029;28;45890;-62
2023/02/07 01:26:54;;;;;;;;;10.25;10.00;;;;;6.90;57.46;102970.66;2080045;27;46333;-61
2023/02/07 01:27:55;;;;;;;;;13.00;13.00;;;;;6.89;57.46;102966.22;2074685;27;46753;-62
2023/02/07 01:28:55;;;;;;;;;9.75;9.75;;;;;6.89;57.44;102957.41;2078631;27;46464;-61
2023/02/07 01:29:56;;;;;;;;;10.75;10.75;;;;;6.88;57.52;102961.81;2071847;27;46603;-62
2023/02/07 01:30:56;;;;;;;;;11.00;10.00;;;;;6.86;57.40;102958.22;2073428;27;46311;-61
2023/02/07 01:31:56;;;;;;;;;12.50;10.25;;;;;6.87;57.42;102960.00;2068565;27;46466;-60
2023/02/07 01:32:57;;;;;;;;;11.00;11.00;;;;;6.87;57.32;102953.84;2075065;27;45826;-62
2023/02/07 01:33:59;;;;;;;;;14.00;11.50;;;;;6.86;57.22;102957.31;2074751;28;46365;-61
2023/02/07 01:35:00;;;;;;;;;9.40;9.40;;;;;6.85;57.26;102952.88;2074596;27;46805;-61
2023/02/07 01:36:05;;;;;;;;;14.75;12.25;;;;;6.85;57.35;102961.69;2068842;27;46735;-62
2023/02/07 01:37:05;;;;;;;;;12.60;12.60;;;;;6.85;57.41;102959.03;2069348;28;46551;-63
2023/02/07 01:38:06;;;;;;;;;10.50;10.50;;;;;6.84;57.41;102956.38;2081924;27;45663;-62
2023/02/07 01:39:07;;;;;;;;;14.40;11.80;;;;;6.83;57.62;102962.50;2077383;27;46718;-60
2023/02/07 01:40:08;;;;;;;;;12.75;9.75;;;;;6.83;57.38;102954.59;2076850;27;46250;-60
2023/02/07 01:41:09;;;;;;;;;14.80;12.80;;;;;6.82;57.53;102955.44;2087571;27;45698;-61
2023/02/07 01:42:13;;;;;;;;;9.00;9.00;;;;;6.79;57.32;102970.34;2074223;27;46818;-60
2023/02/07 01:43:21;;;;;;;;;15.00;12.20;;;;;6.79;57.76;102965.06;2057847;28;46332;-60
2023/02/07 01:44:21;;;;;;;;;15.60;15.60;;;;;6.78;57.55;102965.00;2064078;28;46920;-60
2023/02/07 01:45:31;;;;;;;;;15.75;15.00;;;;;6.80;57.52;102971.22;2070329;27;46579;-61
2023/02/07 01:46:34;;;;;;;;;12.80;11.20;;;;;6.79;57.72;102961.53;2082868;27;46970;-61
2023/02/07 01:47:36;;;;;;;;;16.20;14.20;;;;;6.78;57.41;102962.38;2078119;27;45977;-60
2023/02/07 01:48:36;;;;;;;;;11.80;11.80;;;;;6.76;57.63;102964.06;2053908;28;45702;-61
2023/02/07 01:49:37;;;;;;;;;14.50;11.75;;;;;6.76;57.69;102959.69;2058500;28;46456;-60
2023/02/07 01:50:42;;;;;;;;;15.75;14.00;;;;;6.74;57.73;102968.41;2095573;27;46074;-60
2023/02/07 01:51:50;;;;;;;;;8.00;7.40;;;;;6.73;57.78;102964.88;2107748;27;46108;-61
2023/02/07 01:52:52;;;;;;;;;10.40;10.40;;;;;6.72;57.61;102960.44;2080587;27;46401;-60
2023/02/07 01:53:58;;;;;;;;;11.60;10.60;;;;;6.71;57.88;102961.28;2071912;28;46833;-62
2023/02/07 01:55:07;;;;;;;;;9.60;9.60;;;;;6.71;57.48;102963.03;2068838;27;46736;-60
2023/02/07 01:56:11;;;;;;;;;12.20;12.20;;;;;6.70;57.75;102967.41;2074613;27;47274;-60
2023/02/07 01:57:16;;;;;;;;;10.20;10.20;;;;;6.69;57.79;102960.34;2075642;28;46201;-63
2023/02/07 01:58:16;;;;;;;;;14.00;12.80;;;;;6.69;57.87;102952.44;2061839;28;46845;-61
2023/02/07 01:59:17;;;;;;;;;13.50;10.50;;;;;6.70;57.89;102955.97;2105360;27;47215;-61
2023/02/07 02:00:17;;;;;;;;;15.00;12.25;;;;;6.69;57.78;102955.06;2097598;27;46490;-61
2023/02/07 02:01:23;;;;;;;;;14.00;12.75;;;;;6.69;57.61;102962.97;2069424;27;46284;-60
2023/02/07 02:02:27;;;;;;;;;9.20;9.20;;;;;6.68;57.70;102955.03;2069110;28;46301;-61
2023/02/07 02:03:27;;;;;;;;;14.40;13.80;;;;;6.67;57.99;102955.88;2065274;27;46542;-61
2023/02/07 02:04:27;;;;;;;;;13.50;11.25;;;;;6.66;57.54;102947.06;2103647;28;46270;-59
2023/02/07 02:05:30;;;;;;;;;12.50;12.50;;;;;6.66;58.13;102952.34;2075246;28;46686;-61
2023/02/07 02:06:32;;;;;;;;;14.00;12.80;;;;;6.66;57.84;102960.25;2065206;27;46174;-60
2023/02/07 02:07:34;;;;;;;;;13.00;13.00;;;;;6.66;57.80;102959.38;2112817;27;46574;-59
2023/02/07 02:08:34;;;;;;;;;14.80;11.20;;;;;6.64;57.77;102942.59;2102431;27;46813;-61
2023/02/07 02:09:36;;;;;;;;;15.25;14.00;;;;;6.64;57.80;102950.50;2109923;27;46360;-61
2023/02/07 02:11:01;;;;;;;;;16.00;14.80;;;;;6.62;58.05;102945.19;2074525;27;46289;-59
2023/02/07 02:12:07;;;;;;;;;14.40;12.20;;;;;6.62;58.02;102952.22;2091857;27;46489;-62
2023/02/07 02:13:08;;;;;;;;;13.60;11.80;;;;;6.60;57.82;102948.59;2078728;27;46424;-62
2023/02/07 02:14:26;;;;;;;;;13.00;11.75;;;;;6.59;58.10;102949.47;2098092;27;46634;-61
2023/02/07 02:15:51;;;;;;;;;14.20;11.80;;;;;6.58;57.87;102951.22;2105767;27;46491;-60
2023/02/07 02:17:09;;;;;;;;;11.40;11.00;;;;;6.58;58.05;102938.00;2099288;27;47068;-61
2023/02/07 02:18:27;;;;;;;;;15.00;12.60;;;;;6.56;58.00;102934.44;2090692;27;46718;-62
2023/02/07 02:19:54;;;;;;;;;12.20;9.60;;;;;6.57;58.24;102923.03;2071061;28;46940;-60
2023/02/07 02:21:16;;;;;;;;;15.20;14.20;;;;;6.57;57.89;102930.94;2070766;27;46942;-61
2023/02/07 02:22:25;;;;;;;;;12.20;12.20;;;;;6.55;58.23;102930.03;2094257;27;46670;-61
2023/02/07 02:23:41;;;;;;;;;14.00;12.40;;;;;6.53;58.05;102933.47;2103678;27;46568;-61
2023/02/07 02:25:12;;;;;;;;;11.00;10.40;;;;;6.52;57.98;102929.94;2097265;27;46447;-61
2023/02/07 02:26:33;;;;;;;;;11.60;11.40;;;;;6.51;58.09;102930.78;2086714;27;46424;-62
2023/02/07 02:28:12;;;;;;;;;13.40;13.40;;;;;6.49;58.01;102924.56;2070289;27;46156;-60
2023/02/07 02:29:37;;;;;;;;;14.40;14.20;;;;;6.47;58.14;102919.22;2102881;27;46745;-62
2023/02/07 02:31:04;;;;;;;;;17.20;15.00;;;;;6.47;58.25;102919.22;2109779;27;46924;-62
2023/02/07 02:32:16;;;;;;;;;13.00;13.00;;;;;6.47;58.04;102920.97;2061223;28;46125;-61
2023/02/07 02:33:42;;;;;;;;;14.80;14.80;;;;;6.45;58.26;102912.13;2076219;28;46375;-61
2023/02/07 02:35:03;;;;;;;;;15.40;14.40;;;;;6.45;57.88;102914.75;2092596;27;46748;-61
2023/02/07 02:36:17;;;;;;;;;15.60;14.00;;;;;6.44;58.16;102923.53;2092905;27;46641;-62
2023/02/07 02:37:18;;;;;;;;;9.40;9.40;;;;;6.43;58.23;102924.38;2078501;27;46560;-60
2023/02/07 02:38:29;;;;;;;;;13.00;12.75;;;;;6.43;58.03;102927.00;2091079;27;46872;-61
2023/02/07 02:39:39;;;;;;;;;12.40;12.40;;;;;6.43;58.44;102921.72;2096400;27;46956;-61
2023/02/07 02:40:50;;;;;;;;;10.40;10.40;;;;;6.42;58.02;102923.47;2082461;27;46530;-62
2023/02/07 02:42:16;;;;;;;;;17.80;15.20;;;;;6.41;58.36;102916.41;2079104;27;46670;-60
2023/02/07 02:43:31;;;;;;;;;13.40;13.40;;;;;6.40;58.07;102922.53;2069692;27;46535;-60
2023/02/07 02:44:40;;;;;;;;;13.80;13.20;;;;;6.40;58.09;102927.81;2082866;27;46842;-62
2023/02/07 02:45:46;;;;;;;;;19.00;13.20;;;;;6.39;58.25;102931.31;2096321;28;45669;-61
2023/02/07 02:46:48;;;;;;;;;20.00;16.80;;;;;6.38;58.14;102923.34;2101690;27;46321;-61
2023/02/07 02:47:50;;;;;;;;;15.20;13.60;;;;;6.38;57.88;102925.97;2108320;27;45246;-61
2023/02/07 02:48:52;;;;;;;;;3.20;2.00;;;;;6.36;58.65;102925.03;2092068;27;46125;-61
2023/02/07 02:49:52;;;;;;;;;15.00;12.40;;;;;6.35;58.71;102924.16;2106506;27;46418;-62
2023/02/07 02:50:54;;;;;;;;;12.75;12.25;;;;;6.36;58.13;102927.69;2081276;27;46109;-61
2023/02/07 02:51:55;;;;;;;;;13.20;13.20;;;;;6.36;58.06;102923.31;2114117;27;46365;-61
2023/02/07 02:52:56;;;;;;;;;14.00;13.00;;;;;6.34;58.72;102924.06;2091041;27;46529;-61
2023/02/07 02:53:58;;;;;;;;;15.50;14.00;;;;;6.33;58.50;102931.09;2065722;27;46645;-60
2023/02/07 02:54:58;;;;;;;;;14.60;13.20;;;;;6.32;58.74;102926.66;2114272;27;47271;-62
2023/02/07 02:56:28;;;;;;;;;16.25;14.00;;;;;6.34;58.60;102929.34;2088962;27;46705;-61
2023/02/07 02:57:53;;;;;;;;;14.80;13.00;;;;;6.35;58.34;102928.50;2096939;28;45307;-61
2023/02/07 02:59:07;;;;;;;;;15.20;14.20;;;;;6.35;58.14;102933.78;2088868;28;46487;-60
2023/02/07 03:00:21;;;;;;;;;11.40;11.20;;;;;6.36;58.22;102927.69;2089904;28;46060;-61
2023/02/07 03:01:49;;;;;;;;;5.20;2.80;;;;;6.35;58.37;102925.88;2095978;28;46466;-60
2023/02/07 03:03:11;;;;;;;;;11.20;11.20;;;;;6.33;58.20;102932.84;2096515;28;46423;-63
2023/02/07 03:04:17;;;;;;;;;12.60;12.00;;;;;6.32;58.61;102931.06;2096393;28;46586;-61
2023/02/07 03:05:35;;;;;;;;;17.40;16.40;;;;;6.32;58.62;102933.69;2096176;28;46377;-60
2023/02/07 03:06:56;;;;;;;;;16.40;14.60;;;;;6.31;58.66;102932.78;2096425;28;46734;-61
2023/02/07 03:08:15;;;;;;;;;13.20;10.40;;;;;6.30;58.67;102920.47;2070988;28;46878;-61
2023/02/07 03:09:27;;;;;;;;;12.40;12.40;;;;;6.31;58.45;102918.72;2078218;28;46484;-62
2023/02/07 03:10:46;;;;;;;;;16.20;13.80;;;;;6.29;58.54;102921.31;2079106;28;46820;-61
2023/02/07 03:12:03;;;;;;;;;15.60;15.60;;;;;6.30;58.67;102919.56;2078992;28;46528;-62
2023/02/07 03:13:27;;;;;;;;;16.60;14.20;;;;;6.27;58.62;102924.75;2078604;28;46029;-61
2023/02/07 03:14:48;;;;;;;;;16.80;13.80;;;;;6.27;58.47;102919.47;2079394;28;46384;-61
2023/02/07 03:15:57;;;;;;;;;19.60;18.20;;;;;6.27;58.68;102915.09;2076626;28;46645;-61
2023/02/07 03:17:29;;;;;;;;;17.60;16.60;;;;;6.26;58.46;102908.03;2077835;28;46423;-62
2023/02/07 03:18:47;;;;;;;;;14.20;13.00;;;;;6.25;58.61;102898.34;2062900;28;46743;-62
2023/02/07 03:19:57;;;;;;;;;18.40;16.00;;;;;6.26;58.50;102904.50;2062996;28;46713;-61
2023/02/07 03:21:06;;;;;;;;;15.00;14.20;;;;;6.25;58.44;102900.97;2062720;28;46594;-61
2023/02/07 03:22:12;;;;;;;;;14.00;13.60;;;;;6.25;58.51;102900.09;2065098;28;46129;-60
2023/02/07 03:23:15;;;;;;;;;13.40;11.60;;;;;6.24;58.58;102904.47;2062769;28;46952;-60
2023/02/07 03:24:20;;;;;;;;;14.40;14.40;;;;;6.24;58.58;102911.47;2055093;28;45838;-61
2023/02/07 03:25:23;;;;;;;;;16.40;13.40;;;;;6.22;58.83;102914.03;2056291;28;46317;-61
2023/02/07 03:26:25;;;;;;;;;18.40;15.20;;;;;6.25;58.23;102918.53;2062911;28;47147;-61
2023/02/07 03:27:28;;;;;;;;;17.80;14.00;;;;;6.24;58.95;102920.28;2065524;28;46429;-61
2023/02/07 03:28:31;;;;;;;;;14.40;14.40;;;;;6.24;58.77;102928.19;2065681;28;46427;-60
2023/02/07 03:29:35;;;;;;;;;18.60;15.60;;;;;6.23;58.55;102921.13;2063088;28;46504;-61
2023/02/07 03:30:37;;;;;;;;;18.40;15.00;;;;;6.23;58.54;102923.78;2063522;28;45696;-60
2023/02/07 03:31:42;;;;;;;;;19.40;18.40;;;;;6.25;59.11;102929.97;2062881;28;45665;-60
2023/02/07 03:32:50;;;;;;;;;15.60;15.20;;;;;6.25;58.57;102926.44;2062972;28;46668;-61
2023/02/07 03:33:57;;;;;;;;;23.60;23.20;;;;;6.24;58.62;102916.75;2055905;28;46585;-62
2023/02/07 03:35:27;;;;;;;;;6.00;0.20;;;;;6.24;58.77;102911.47;2059711;28;46663;-61
2023/02/07 03:36:35;;;;;;;;;24.40;22.40;;;;;6.23;58.28;102912.34;2048011;28;45675;-61
2023/02/07 03:37:40;;;;;;;;;27.60;24.60;;;;;6.22;58.58;102921.94;2047692;28;46986;-62
2023/02/07 03:38:40;;;;;;;;;28.40;20.40;;;;;6.22;58.96;102923.69;2053860;28;46080;-61
2023/02/07 03:39:41;;;;;;;;;26.00;23.50;;;;;6.23;58.53;102933.44;2058191;28;46286;-61
2023/02/07 03:40:45;;;;;;;;;28.50;24.75;;;;;6.22;58.90;102923.69;2064520;28;46531;-60
2023/02/07 03:41:54;;;;;;;;;26.20;25.00;;;;;6.22;58.79;102932.50;2063518;28;46747;-62
2023/02/07 03:43:09;;;;;;;;;28.20;25.60;;;;;6.22;58.78;102927.22;2061875;28;46904;-61
2023/02/07 03:44:13;;;;;;;;;24.60;19.80;;;;;6.22;58.85;102928.97;2061560;28;46812;-61
2023/02/07 03:45:18;;;;;;;;;24.40;21.00;;;;;6.20;58.67;102923.66;2062431;28;46805;-61
2023/02/07 03:46:18;;;;;;;;;22.60;21.80;;;;;6.18;58.41;102923.59;2063065;28;46502;-60
2023/02/07 03:47:19;;;;;;;;;22.75;20.75;;;;;6.18;58.51;102927.97;2064234;28;46659;-62
2023/02/07 03:48:19;;;;;;;;;19.50;17.00;;;;;6.16;58.77;102924.41;2062869;28;46831;-58
2023/02/07 03:49:20;;;;;;;;;20.00;18.50;;;;;6.16;58.64;102921.78;2064133;28;46173;-60
2023/02/07 03:50:20;;;;;;;;;19.00;18.00;;;;;6.14;58.68;102918.19;2062905;28;46257;-61
2023/02/07 03:51:20;;;;;;;;;16.00;16.00;;;;;6.14;58.52;102924.38;2061845;28;46815;-61
2023/02/07 03:52:21;;;;;;;;;19.00;16.50;;;;;6.13;58.66;102933.13;2062903;28;46302;-61
2023/02/07 03:53:21;;;;;;;;;14.50;14.50;;;;;6.13;58.60;102926.97;2068113;28;46392;-61
2023/02/07 03:54:21;;;;;;;;;21.00;20.00;;;;;6.10;58.89;102927.75;2064990;28;46369;-61
2023/02/07 03:55:21;;;;;;;;;16.75;15.00;;;;;6.11;58.41;102940.09;2062363;28;46831;-61
2023/02/07 03:56:22;;;;;;;;;16.00;14.00;;;;;6.10;58.58;102940.94;2062419;28;46060;-61
2023/02/07 03:57:22;;;;;;;;;15.00;14.50;;;;;6.10;58.52;102940.03;2075780;28;46637;-61
2023/02/07 03:58:22;;;;;;;;;14.75;13.75;;;;;6.08;59.11;102934.69;2078792;28;47238;-62
2023/02/07 03:59:23;;;;;;;;;13.50;13.25;;;;;6.08;58.52;102937.34;2070806;28;46610;-62
2023/02/07 04:00:23;;;;;;;;;12.25;12.25;;;;;6.07;58.85;102932.91;2062163;28;46205;-61
2023/02/07 04:01:24;;;;;;;;;18.75;16.25;;;;;6.07;58.95;102938.19;2062668;28;46434;-61
2023/02/07 04:02:24;;;;;;;;;20.50;16.50;;;;;6.07;58.46;102934.66;2078583;28;45635;-61
2023/02/07 04:03:24;;;;;;;;;16.50;15.75;;;;;6.08;59.22;102939.06;2079037;28;46700;-59
2023/02/07 04:04:25;;;;;;;;;19.75;14.50;;;;;6.08;59.01;102936.44;2077390;28;46744;-60
2023/02/07 04:05:26;;;;;;;;;14.75;13.00;;;;;6.08;58.94;102925.91;2069868;28;46692;-61
2023/02/07 04:06:26;;;;;;;;;9.00;8.75;;;;;6.07;59.15;102935.53;2070679;28;46245;-61
2023/02/07 04:07:26;;;;;;;;;16.25;14.75;;;;;6.07;58.94;102927.63;2074233;28;46479;-61
2023/02/07 04:08:27;;;;;;;;;18.50;15.50;;;;;6.07;58.93;102932.00;2070641;28;45838;-59
2023/02/07 04:09:27;;;;;;;;;19.75;17.25;;;;;6.06;59.02;102932.88;2078311;28;45606;-60
2023/02/07 04:10:28;;;;;;;;;17.75;13.75;;;;;6.05;58.97;102934.59;2078311;28;46864;-61
2023/02/07 04:11:28;;;;;;;;;14.00;12.00;;;;;6.05;59.08;102944.25;2078973;28;46406;-61
2023/02/07 04:12:31;;;;;;;;;14.25;14.25;;;;;6.04;58.96;102940.72;2079046;28;46297;-60
2023/02/07 04:13:32;;;;;;;;;19.20;16.20;;;;;6.04;58.61;102931.94;2078717;28;46464;-61
2023/02/07 04:14:32;;;;;;;;;14.00;14.00;;;;;6.03;59.14;102940.69;2048806;28;46286;-61
2023/02/07 04:15:32;;;;;;;;;15.25;15.25;;;;;6.03;59.28;102940.69;2062614;28;46385;-61
2023/02/07 04:16:33;;;;;;;;;15.25;15.00;;;;;6.01;58.92;102943.28;2052301;28;46233;-63
2023/02/07 04:17:33;;;;;;;;;19.00;14.75;;;;;6.02;59.18;102941.53;2104407;28;45880;-62
2023/02/07 04:18:33;;;;;;;;;13.75;11.00;;;;;6.01;59.12;102935.38;2088725;28;46519;-63
2023/02/07 04:19:34;;;;;;;;;13.75;13.25;;;;;6.00;59.12;102938.84;2059539;28;45853;-60
2023/02/07 04:20:34;;;;;;;;;19.50;14.75;;;;;6.02;58.77;102933.63;2095259;28;46688;-60
2023/02/07 04:21:34;;;;;;;;;18.75;17.00;;;;;6.01;58.97;102935.38;2060993;28;46640;-61
2023/02/07 04:22:35;;;;;;;;;14.25;14.25;;;;;6.01;59.21;102934.47;2061590;28;46187;-61
2023/02/07 04:23:35;;;;;;;;;16.25;14.00;;;;;6.01;59.00;102938.00;2100740;28;46652;-63
2023/02/07 04:24:36;;;;;;;;;14.75;14.75;;;;;6.00;59.06;102927.41;2091134;28;46615;-60
2023/02/07 04:25:36;;;;;;;;;17.00;13.75;;;;;5.99;58.93;102929.16;2094613;28;45734;-60
2023/02/07 04:26:37;;;;;;;;;12.25;12.25;;;;;5.98;59.00;102927.38;2098585;28;46479;-60
2023/02/07 04:27:37;;;;;;;;;14.50;13.75;;;;;5.99;59.15;102925.63;2079312;28;45748;-61
2023/02/07 04:28:37;;;;;;;;;16.50;16.50;;;;;5.99;58.83;102921.25;2080047;28;46231;-60
2023/02/07 04:29:38;;;;;;;;;17.00;15.25;;;;;5.98;58.78;102932.63;2066027;28;46241;-62
2023/02/07 04:30:38;;;;;;;;;19.00;14.75;;;;;5.98;58.68;102930.00;2088089;28;46322;-61
2023/02/07 04:31:41;;;;;;;;;18.25;14.75;;;;;5.98;58.95;102932.63;2058962;28;46541;-61
2023/02/07 04:32:41;;;;;;;;;15.00;13.00;;;;;5.97;59.16;102938.75;2054831;28;46673;-61
2023/02/07 04:33:41;;;;;;;;;16.00;14.50;;;;;5.95;59.37;102940.41;2095517;28;45883;-59
2023/02/07 04:34:42;;;;;;;;;16.25;13.25;;;;;5.93;59.11;102942.13;2063559;28;46264;-61
2023/02/07 04:35:42;;;;;;;;;14.00;14.00;;;;;5.92;58.82;102945.59;2061404;28;47150;-61
2023/02/07 04:36:42;;;;;;;;;15.75;14.75;;;;;5.92;58.89;102945.59;2066989;27;45307;-61
2023/02/07 04:37:43;;;;;;;;;16.25;16.25;;;;;5.92;58.89;102948.22;2064327;28;46096;-61
2023/02/07 04:38:43;;;;;;;;;17.25;17.25;;;;;5.92;59.02;102947.34;2067198;28;46360;-61
2023/02/07 04:39:44;;;;;;;;;13.50;12.75;;;;;5.94;59.25;102953.53;2071262;28;46918;-61
2023/02/07 04:40:45;;;;;;;;;18.00;16.20;;;;;5.94;58.98;102951.81;2068697;27;46547;-60
2023/02/07 04:41:45;;;;;;;;;13.00;13.00;;;;;5.94;59.00;102950.91;2082155;27;47018;-59
2023/02/07 04:42:45;;;;;;;;;18.75;14.50;;;;;5.93;58.98;102955.28;2084590;27;45616;-60
2023/02/07 04:43:45;;;;;;;;;18.00;14.50;;;;;5.92;59.15;102949.97;2070665;28;46332;-61
2023/02/07 04:44:46;;;;;;;;;18.25;15.50;;;;;5.93;59.13;102946.47;2092507;27;45927;-61
2023/02/07 04:45:47;;;;;;;;;15.50;14.50;;;;;5.94;58.79;102948.28;2092339;27;46489;-60
2023/02/07 04:46:47;;;;;;;;;14.50;14.50;;;;;5.94;58.92;102945.63;2110526;27;46146;-61
2023/02/07 04:47:47;;;;;;;;;18.75;15.25;;;;;5.93;58.87;102946.47;2091376;27;46432;-60
2023/02/07 04:48:48;;;;;;;;;16.25;14.00;;;;;5.94;59.24;102938.63;2105029;27;46586;-61
2023/02/07 04:49:48;;;;;;;;;15.25;13.75;;;;;5.93;59.23;102941.22;2101906;27;46623;-61
2023/02/07 04:50:48;;;;;;;;;16.50;14.50;;;;;5.93;59.17;102938.59;2094547;27;46668;-61
2023/02/07 04:51:49;;;;;;;;;14.00;13.00;;;;;5.92;59.08;102945.59;2113320;27;45500;-61
2023/02/07 04:52:49;;;;;;;;;17.25;15.50;;;;;5.92;59.27;102945.59;2083843;27;46036;-61
2023/02/07 04:53:49;;;;;;;;;18.75;13.75;;;;;5.90;59.55;102947.28;2071431;28;46451;-60
2023/02/07 04:54:50;;;;;;;;;16.00;15.00;;;;;5.90;59.27;102950.81;2109224;27;46241;-62
2023/02/07 04:55:52;;;;;;;;;15.00;14.75;;;;;5.90;59.49;102949.94;2092871;27;47028;-60
2023/02/07 04:56:52;;;;;;;;;18.20;17.60;;;;;5.90;59.40;102960.47;2078363;28;46448;-61